createdAt,value
2019-01-15T04:27:22.261Z,3.40
2019-01-15T04:29:52.578Z,3.40
2019-01-15T04:32:22.850Z,3.50
2019-01-15T04:34:53.133Z,3.50
2019-01-15T04:37:23.521Z,3.50
2019-01-15T04:39:53.816Z,3.50
2019-01-15T04:42:24.098Z,3.60
2019-01-15T04:44:54.394Z,3.60
2019-01-15T04:47:24.651Z,3.60
2019-01-15T04:49:54.938Z,3.70
2019-01-15T04:52:25.405Z,3.60
2019-01-15T04:54:55.714Z,3.60
2019-01-15T04:57:25.994Z,3.70
2019-01-15T04:59:56.409Z,3.80
2019-01-15T05:02:26.680Z,3.90
2019-01-15T05:04:57.009Z,3.80
2019-01-15T05:07:27.317Z,3.80
2019-01-15T05:09:57.584Z,3.70
2019-01-15T05:12:27.870Z,3.80
2019-01-15T05:14:58.182Z,3.70
2019-01-15T05:17:28.483Z,3.70
2019-01-15T05:19:58.761Z,3.80
2019-01-15T05:22:29.050Z,3.80
2019-01-15T05:24:59.374Z,3.80
2019-01-15T05:27:29.755Z,3.90
2019-01-15T05:30:00.053Z,3.90
2019-01-15T05:32:30.549Z,3.80
2019-01-15T05:35:00.824Z,3.80
2019-01-15T05:37:31.124Z,3.90
2019-01-15T05:40:01.462Z,3.90
2019-01-15T05:42:31.718Z,3.90
2019-01-15T05:45:04.920Z,4.00
2019-01-15T05:47:35.382Z,4.10
2019-01-15T05:50:06.518Z,4.20
2019-01-15T05:52:36.904Z,4.20
2019-01-15T05:55:07.386Z,4.00
2019-01-15T05:57:40.594Z,3.80
2019-01-15T06:00:11.640Z,3.70
2019-01-15T06:02:41.909Z,3.80
2019-01-15T06:05:12.478Z,3.70
2019-01-15T06:07:42.841Z,3.80
2019-01-15T06:10:13.337Z,3.80
2019-01-15T06:12:43.597Z,3.70
2019-01-15T06:15:13.995Z,3.80
2019-01-15T06:17:44.295Z,3.80
2019-01-15T06:20:15.469Z,3.80
2019-01-15T06:22:45.878Z,3.80
2019-01-15T06:25:16.588Z,3.80
2019-01-15T06:27:46.981Z,3.80
2019-01-15T06:30:17.431Z,3.90
2019-01-15T06:32:47.709Z,3.80
2019-01-15T06:35:18.006Z,3.80
2019-01-15T06:37:48.261Z,3.80
2019-01-15T06:40:18.570Z,3.80
2019-01-15T06:42:49.083Z,3.70
2019-01-15T06:45:22.049Z,3.70
2019-01-15T06:47:52.444Z,3.70
2019-01-15T06:50:22.856Z,3.70
2019-01-15T06:52:53.231Z,3.70
2019-01-15T06:55:23.564Z,3.60
2019-01-15T06:57:53.965Z,3.60
2019-01-15T07:00:26.365Z,3.60
2019-01-15T07:02:56.970Z,3.50
2019-01-15T07:05:27.241Z,3.50
2019-01-15T07:07:57.671Z,3.40
2019-01-15T07:10:30.688Z,3.40
2019-01-15T07:13:00.981Z,3.30
2019-01-15T07:15:31.241Z,3.30
2019-01-15T07:18:05.604Z,3.30
2019-01-15T07:20:36.137Z,3.50
2019-01-15T07:23:06.710Z,3.40
2019-01-15T07:25:37.314Z,3.30
2019-01-15T07:28:08.742Z,3.20
2019-01-15T07:30:51.100Z,3.30
2019-01-15T07:33:24.444Z,3.30
2019-01-15T07:35:54.724Z,3.20
2019-01-15T07:38:25.090Z,3.30
2019-01-15T07:40:55.497Z,3.40
2019-01-15T07:43:26.290Z,3.40
2019-01-15T07:45:56.613Z,3.40
2019-01-15T07:48:26.975Z,3.50
2019-01-15T07:50:57.333Z,3.60
2019-01-15T07:53:27.673Z,3.70
2019-01-15T07:55:58.528Z,3.60
2019-01-15T07:58:29.117Z,3.50
2019-01-15T08:00:59.790Z,3.50
2019-01-15T08:03:30.377Z,3.60
2019-01-15T08:06:00.862Z,3.50
2019-01-15T08:08:32.453Z,3.60
2019-01-15T08:11:02.824Z,3.80
2019-01-15T08:13:33.283Z,4.00
2019-01-15T08:16:03.861Z,4.20
2019-01-15T08:18:34.261Z,4.00
2019-01-15T08:21:55.041Z,3.70
2019-01-15T08:24:30.161Z,3.70
2019-01-15T08:27:10.352Z,3.60
2019-01-15T08:30:01.316Z,3.70
2019-01-15T08:32:43.211Z,3.70
2019-01-15T08:35:19.873Z,3.70
2019-01-15T08:37:50.201Z,3.70
2019-01-15T08:40:21.673Z,3.70
2019-01-15T08:42:53.051Z,3.90
2019-01-15T08:45:23.368Z,4.10
2019-01-15T08:48:06.367Z,4.30
2019-01-15T08:50:36.688Z,4.40
2019-01-15T08:53:06.977Z,4.30
2019-01-15T08:55:37.285Z,4.30
2019-01-15T08:58:07.720Z,4.10
2019-01-15T09:00:38.008Z,4.20
2019-01-15T09:03:08.305Z,4.30
2019-01-15T09:05:38.588Z,4.30
2019-01-15T09:08:09.002Z,4.30
2019-01-15T09:10:39.332Z,4.40
2019-01-15T09:13:09.630Z,4.50
2019-01-15T09:15:39.952Z,4.70
2019-01-15T09:18:10.199Z,4.60
2019-01-15T09:20:40.500Z,4.70
2019-01-15T09:23:10.758Z,4.70
2019-01-15T09:25:41.117Z,4.80
2019-01-15T09:28:11.381Z,4.80
2019-01-15T09:30:41.692Z,4.80
2019-01-15T09:33:12.024Z,4.90
2019-01-15T09:35:42.403Z,5.10
2019-01-15T09:38:12.672Z,5.40
2019-01-15T09:40:44.427Z,5.20
2019-01-15T09:43:15.315Z,5.40
2019-01-15T09:45:48.384Z,5.50
2019-01-15T09:48:25.576Z,5.50
2019-01-15T09:50:56.839Z,5.30
2019-01-15T09:53:28.448Z,5.50
2019-01-15T09:56:00.520Z,5.30
2019-01-15T09:58:31.529Z,5.20
2019-01-15T10:01:03.431Z,5.10
2019-01-15T10:03:34.928Z,5.00
2019-01-15T10:06:05.850Z,5.00
2019-01-15T10:08:37.502Z,5.30
2019-01-15T10:11:09.132Z,5.50
2019-01-15T10:13:40.450Z,5.50
2019-01-15T10:16:11.729Z,5.50
2019-01-15T10:18:44.459Z,5.50
2019-01-15T10:21:15.671Z,5.50
2019-01-15T10:23:46.725Z,5.50
2019-01-15T10:26:18.006Z,5.60
2019-01-15T10:28:50.183Z,5.60
2019-01-15T10:31:59.258Z,5.60
2019-01-15T10:34:35.174Z,5.60
2019-01-15T10:37:04.195Z,5.60
2019-01-15T10:39:35.849Z,5.70
2019-01-15T10:42:07.179Z,5.80
2019-01-15T10:44:39.456Z,5.80
2019-01-15T10:47:11.498Z,5.80
2019-01-15T10:49:56.203Z,5.80
2019-01-15T10:52:26.864Z,5.80
2019-01-15T10:54:57.365Z,5.90
2019-01-15T10:57:39.183Z,6.00
2019-01-15T11:00:11.849Z,6.00
2019-01-15T11:02:49.395Z,6.10
2019-01-15T11:05:22.815Z,6.10
2019-01-15T11:07:58.232Z,6.20
2019-01-15T11:10:42.094Z,6.30
2019-01-15T11:13:26.257Z,6.20
2019-01-15T11:15:53.557Z,6.30
2019-01-15T11:18:33.715Z,6.30
2019-01-15T11:21:14.042Z,6.30
2019-01-15T11:23:47.183Z,6.40
2019-01-15T11:26:27.348Z,6.40
2019-01-15T11:28:57.979Z,6.40
2019-01-15T11:31:32.035Z,6.30
2019-01-15T11:34:03.640Z,6.30
2019-01-15T11:36:33.958Z,6.30
2019-01-15T11:39:07.203Z,6.50
2019-01-15T11:41:37.509Z,6.50
2019-01-15T11:44:07.832Z,6.60
2019-01-15T11:46:38.324Z,6.60
2019-01-15T11:49:09.708Z,6.60
2019-01-15T11:51:40.170Z,6.70
2019-01-15T11:54:11.900Z,6.80
2019-01-15T11:56:42.501Z,6.70
2019-01-15T11:59:13.380Z,6.60
2019-01-15T12:01:52.660Z,6.50
2019-01-15T12:04:45.309Z,6.60
2019-01-15T12:07:31.761Z,6.70
2019-01-15T12:10:30.451Z,6.70
2019-01-15T12:13:18.491Z,6.70
2019-01-15T12:16:06.016Z,6.80
2019-01-15T12:19:04.544Z,6.70
2019-01-15T12:21:47.308Z,6.70
2019-01-15T12:24:43.899Z,6.90
2019-01-15T12:27:33.234Z,6.90
2019-01-15T12:30:14.305Z,6.80
2019-01-15T12:33:02.022Z,6.80
2019-01-15T12:36:03.701Z,6.80
2019-01-15T12:39:01.817Z,6.70
2019-01-15T12:41:56.896Z,6.70
2019-01-15T12:44:44.799Z,6.70
2019-01-15T12:47:34.909Z,6.70
2019-01-15T12:50:26.131Z,6.70
2019-01-15T12:53:23.846Z,6.70
2019-01-15T12:56:13.046Z,6.90
2019-01-15T12:59:08.437Z,7.00
2019-01-15T13:01:56.870Z,7.20
2019-01-15T13:05:02.001Z,7.30
2019-01-15T13:07:49.544Z,7.30
2019-01-15T13:10:37.366Z,7.20
2019-01-15T13:13:26.479Z,7.10
2019-01-15T13:16:09.789Z,7.10
2019-01-15T13:19:08.314Z,7.20
2019-01-15T13:21:57.832Z,7.20
2019-01-15T13:24:46.193Z,7.20
2019-01-15T13:27:29.811Z,7.20
2019-01-15T13:30:25.150Z,7.20
2019-01-15T13:33:23.353Z,7.40
2019-01-15T13:36:06.052Z,7.40
2019-01-15T13:38:55.196Z,7.50
2019-01-15T13:41:42.981Z,7.60
2019-01-15T13:44:50.200Z,7.80
2019-01-15T13:47:37.994Z,7.90
2019-01-15T13:50:20.553Z,7.80
2019-01-15T13:53:13.542Z,7.70
2019-01-15T13:55:54.658Z,7.80
2019-01-15T13:58:42.660Z,7.70
2019-01-15T14:01:43.909Z,7.60
2019-01-15T14:04:36.706Z,7.60
2019-01-15T14:07:20.885Z,7.70
2019-01-15T14:10:08.983Z,7.60
2019-01-15T14:12:58.259Z,7.50
2019-01-15T14:15:59.905Z,7.50
2019-01-15T14:18:53.612Z,7.50
2019-01-15T14:21:48.616Z,7.40
2019-01-15T14:24:40.890Z,7.40
2019-01-15T14:27:38.972Z,7.30
2019-01-15T14:30:46.136Z,7.40
2019-01-15T14:33:35.380Z,7.40
2019-01-15T14:36:23.261Z,7.30
2019-01-15T14:39:11.281Z,7.30
2019-01-15T14:42:06.610Z,7.30
2019-01-15T14:45:04.662Z,7.30
2019-01-15T14:48:12.073Z,7.30
2019-01-15T14:51:13.256Z,7.30
2019-01-15T14:54:01.112Z,7.30
2019-01-15T14:56:48.972Z,7.30
2019-01-15T14:59:37.681Z,7.30
2019-01-15T15:02:36.282Z,7.20
2019-01-15T15:05:32.633Z,7.20
2019-01-15T15:08:27.688Z,7.10
2019-01-15T15:11:23.684Z,7.10
2019-01-15T15:14:13.722Z,7.10
2019-01-15T15:16:57.536Z,7.10
2019-01-15T15:19:46.562Z,7.10
2019-01-15T15:22:34.478Z,7.10
2019-01-15T15:25:36.764Z,7.00
2019-01-15T15:28:24.244Z,7.10
2019-01-15T15:31:24.977Z,7.00
2019-01-15T15:34:26.210Z,7.10
2019-01-15T15:37:20.789Z,7.00
2019-01-15T15:40:18.882Z,7.00
2019-01-15T15:43:06.632Z,7.00
2019-01-15T15:46:13.898Z,7.00
2019-01-15T15:49:02.007Z,7.00
2019-01-15T15:51:44.869Z,6.90
2019-01-15T15:54:46.353Z,7.00
2019-01-15T15:57:41.356Z,7.00
2019-01-15T16:00:29.457Z,7.00
2019-01-15T16:03:18.941Z,7.00
2019-01-15T16:06:14.232Z,7.00
2019-01-15T16:09:08.160Z,7.00
2019-01-15T16:11:48.093Z,7.00
2019-01-15T16:14:35.044Z,7.00
2019-01-15T16:17:23.211Z,7.00
2019-01-15T16:20:12.486Z,7.00
2019-01-15T16:23:00.164Z,7.00
2019-01-15T16:25:58.463Z,7.10
2019-01-15T16:28:46.382Z,7.00
2019-01-15T16:31:41.880Z,7.00
2019-01-15T16:34:37.207Z,7.00
2019-01-15T16:37:16.293Z,7.00
2019-01-15T16:40:10.407Z,7.00
2019-01-15T16:42:51.083Z,7.00
2019-01-15T16:45:39.828Z,7.00
2019-01-15T16:48:38.277Z,7.00
2019-01-15T16:51:29.060Z,7.00
2019-01-15T16:54:25.360Z,7.00
2019-01-15T16:57:13.641Z,7.10
2019-01-15T17:00:12.991Z,7.00
2019-01-15T17:03:05.167Z,7.00
2019-01-15T17:06:09.623Z,7.00
2019-01-15T17:09:00.541Z,7.00
2019-01-15T17:11:43.039Z,7.00
2019-01-15T17:14:31.340Z,6.90
2019-01-15T17:17:19.143Z,6.80
2019-01-15T17:20:01.651Z,6.90
2019-01-15T17:23:03.971Z,6.80
2019-01-15T17:26:05.169Z,6.90
2019-01-15T17:28:47.063Z,6.90
2019-01-15T17:31:36.888Z,6.90
2019-01-15T17:34:27.283Z,6.90
2019-01-15T17:37:18.839Z,6.90
2019-01-15T17:40:19.861Z,6.90
2019-01-15T17:43:07.773Z,6.90
2019-01-15T17:45:56.994Z,6.90
2019-01-15T17:48:49.025Z,6.90
2019-01-15T17:51:44.013Z,6.90
2019-01-15T17:54:33.267Z,6.90
2019-01-15T17:57:31.866Z,6.80
2019-01-15T18:00:21.233Z,6.80
2019-01-15T18:03:10.037Z,6.80
2019-01-15T18:06:02.044Z,6.90
2019-01-15T18:08:57.069Z,6.90
2019-01-15T18:11:50.259Z,6.80
2019-01-15T18:14:38.336Z,6.80
2019-01-15T18:17:22.495Z,6.80
2019-01-15T18:20:20.754Z,6.80
2019-01-15T18:23:10.017Z,6.90
2019-01-15T18:25:57.193Z,6.80
2019-01-15T18:28:46.421Z,6.80
2019-01-15T18:31:39.610Z,6.80
2019-01-15T18:34:35.756Z,6.80
2019-01-15T18:37:17.770Z,6.80
2019-01-15T18:40:08.029Z,6.70
2019-01-15T18:42:55.639Z,6.70
2019-01-15T18:45:44.109Z,6.70
2019-01-15T18:48:28.302Z,6.70
2019-01-15T18:51:33.932Z,6.60
2019-01-15T18:54:22.716Z,6.60
2019-01-15T18:57:11.975Z,6.70
2019-01-15T19:00:09.974Z,6.60
2019-01-15T19:02:58.042Z,6.70
2019-01-15T19:05:49.120Z,6.60
2019-01-15T19:08:40.807Z,6.60
2019-01-15T19:11:30.218Z,6.60
2019-01-15T19:14:25.886Z,6.60
2019-01-15T19:17:07.483Z,6.70
2019-01-15T19:19:56.093Z,6.70
2019-01-15T19:22:48.290Z,6.70
2019-01-15T19:25:51.644Z,6.60
2019-01-15T19:28:41.122Z,6.60
2019-01-15T19:31:36.131Z,6.70
2019-01-15T19:34:25.518Z,6.70
2019-01-15T19:37:17.939Z,6.60
2019-01-15T19:39:58.108Z,6.60
2019-01-15T19:42:56.506Z,6.70
2019-01-15T19:45:45.913Z,6.60
2019-01-15T19:48:39.386Z,6.70
2019-01-15T19:51:31.882Z,6.70
2019-01-15T19:54:21.507Z,6.60
2019-01-15T19:56:59.974Z,6.60
2019-01-15T19:59:52.503Z,6.60
2019-01-15T20:02:39.942Z,6.60
2019-01-15T20:05:27.864Z,6.60
2019-01-15T20:08:24.288Z,6.60
2019-01-15T20:11:13.022Z,6.60
2019-01-15T20:14:05.881Z,6.60
2019-01-15T20:17:02.538Z,6.60
2019-01-15T20:20:04.850Z,6.60
2019-01-15T20:23:10.052Z,6.50
2019-01-15T20:26:00.825Z,6.50
2019-01-15T20:29:08.161Z,6.60
2019-01-15T20:31:52.291Z,6.60
2019-01-15T20:34:41.977Z,6.60
2019-01-15T20:37:29.882Z,6.60
2019-01-15T20:40:23.971Z,6.60
2019-01-15T20:43:25.652Z,6.60
2019-01-15T20:46:23.394Z,6.50
2019-01-15T20:49:11.515Z,6.60
2019-01-15T20:52:01.102Z,6.60
2019-01-15T20:54:45.797Z,6.50
2019-01-15T20:57:36.061Z,6.60
2019-01-15T21:00:29.758Z,6.60
2019-01-15T21:03:17.852Z,6.50
2019-01-15T21:06:06.019Z,6.50
2019-01-15T21:09:10.731Z,6.50
2019-01-15T21:12:05.265Z,6.60
2019-01-15T21:14:53.188Z,6.50
2019-01-15T21:17:56.057Z,6.50
2019-01-15T21:20:51.477Z,6.50
2019-01-15T21:23:39.736Z,6.50
2019-01-15T21:26:41.588Z,6.60
2019-01-15T21:29:28.278Z,6.50
2019-01-15T21:32:16.592Z,6.50
2019-01-15T21:35:08.916Z,6.50
2019-01-15T21:38:01.346Z,6.60
2019-01-15T21:41:05.754Z,6.60
2019-01-15T21:43:53.658Z,6.60
2019-01-15T21:46:48.166Z,6.60
2019-01-15T21:49:46.374Z,6.60
2019-01-15T21:52:36.874Z,6.60
2019-01-15T21:55:15.022Z,6.50
